Aérodrome :
LOGIN :

S'inscrire | Disclaimer

   EN    FR    IT 

 










Légende :    VFR   VFR Marginal   IFR   IFR Intensif   IFR Très Intensif
Visi : 
Plafond : 
>= 8 km
>= 3000ft
5 à 8 km
1000 à 3000 ft
1500m à 5 km
500 à 1000 ft
800 à 1500m
200 à 500 ft
< 800m
< 200 ft
Symboles :   Orages  Brouillard  Fortes neiges  Fortes précipitations  Vent > 20 kt
SIGMETs :   Divers  Orages  Givrage  Turbulence  Onde Orograph.  Cendres Volcan.






- Altitude de l'aérodrome : 141 ft
- Code IATA : TGD


LYPG - Podgorica - Montenegro

DERNIER METAR :
  • 120000Z 07003KT CAVOK 05/M00 Q1008 NOSIG

METARs EXPIRÉS :
  • 112330Z VRB02KT CAVOK 06/M00 Q1008 NOSIG
  • 112300Z 33003KT CAVOK 06/M00 Q1008 NOSIG
  • 112230Z 34004KT CAVOK 06/M00 Q1009 NOSIG
  • 112200Z 01004KT 330V050 CAVOK 06/00 Q1009 NOSIG
  • 112130Z 34005KT 9999 FEW050 08/M00 Q1009 NOSIG

TAF TAF LYPG
Valide du 12 à 00h jusqu'au 13 à 00h UTC


112300Z 1200/1224 36006KT 9999 FEW040 BKN090 TX12/1213Z TN05/1206Z
TEMPO 1217/1224 4000 RA BR



MET'MAP, la Météo Aéronautique d'un coup d'oeil ! - Copyright ORBIFLY Décembre 2007 - Disclaimer

ORBIFLY MET'MAP TEAM :

Programmation & Développement : Alexandra Zaïnal
Sur une idée originale de : Baudouin d'Aumeries
Assistance à la programmation : Marc-Olivier Méhu
Soutien technique & logistique : Manuel Goepfert

Contact : metmap@orbifly.com




SOURCES & CREDITS :

   NOAA